KHUL/HUL METAR and TAF weather

Enter ICAO airport designator
Station Type Date Time Source
KHUL METAR 2020/01/17 21:53 UTC NOAA

KHUL 172153Z AUTO 35009KT 10SM CLR M17/M23 A3040 RMK AO2 SLP308 T11671233


Station Type Date Time Source
KHUL Decoded METAR 2020/01/17 21:53 UTC NOAA

HOULTON INT'L AIRPORT, ME, United States (KHUL) 46-07N 067-48W 150M
Jan 17, 2020 - 04:53 PM EST / 2020.01.17 2153 UTC
Wind: from the N (350 degrees) at 10 MPH (9 KT):0
Visibility: 10 mile(s):0
Sky conditions: clear
Temperature: 1.9 F (-16.7 C)
Windchill: -13 F (-25 C):2
Dew Point: -9.9 F (-23.3 C)
Relative Humidity: 56%
Pressure (altimeter): 30.4 in. Hg (1029 hPa)
ob: KHUL 172153Z AUTO 35009KT 10SM CLR M17/M23 A3040 RMK AO2 SLP308 T11671233
cycle: 22

Station Type Date Time Source
KHUL TAF 2020/01/17 18:36 UTC NOAA

TAF KHUL 171733Z 1718/1818 33015G25KT P6SM SKC
FM172100 33012G22KT P6SM SKC
FM180400 32007KT P6SM SKC

Example: see airport list